Time;durP1;ratioP1;P1;durP2;ratioP2;P2;SDS_P1;SDS_P2;PMS_P1;PMS_P2;Temp;Humidity;BMP_temperature;BMP_pressure;BME280_temperature;BME280_humidity;BME280_pressure;Samples;Min_cycle;Max_cycle;Signal;HPM_P1;HPM_P2
2021/11/01 00:02:46;;;;;;;38.90;26.13;;;;;;;-140.66;100.00;55571.53;4924773;29;20123;-73
2021/11/01 00:05:33;;;;;;;41.40;27.10;;;;;;;-140.66;100.00;55571.53;4937996;29;20128;-73
2021/11/01 00:08:19;;;;;;;41.65;27.77;;;;;;;-140.66;100.00;55571.53;4937378;29;20059;-73
2021/11/01 00:11:05;;;;;;;38.15;27.33;;;;;;;-140.66;100.00;55571.53;4937662;29;20042;-74
2021/11/01 00:13:50;;;;;;;42.25;26.77;;;;;;;-140.66;100.00;55571.53;4938322;29;20031;-73
2021/11/01 00:16:36;;;;;;;41.85;28.38;;;;;;;-140.66;100.00;55571.53;4937244;29;20032;-72
2021/11/01 00:19:22;;;;;;;40.97;27.38;;;;;;;-140.66;100.00;55571.53;4937871;29;20034;-72
2021/11/01 00:22:08;;;;;;;43.83;27.55;;;;;;;-140.66;100.00;55571.53;4937575;29;20035;-73
2021/11/01 00:24:53;;;;;;;38.15;27.70;;;;;;;-140.66;100.00;55571.53;4922911;29;20047;-72
2021/11/01 00:27:39;;;;;;;37.50;26.02;;;;;;;-140.66;100.00;55571.53;4937869;29;20039;-73
2021/11/01 00:30:25;;;;;;;39.10;26.45;;;;;;;-140.66;100.00;55571.53;4937090;29;20027;-72
2021/11/01 00:33:11;;;;;;;34.47;25.48;;;;;;;-140.66;100.00;55571.53;4937578;29;20034;-74
2021/11/01 00:35:57;;;;;;;41.22;26.60;;;;;;;-140.66;100.00;55571.53;4937748;29;20059;-74
2021/11/01 00:38:44;;;;;;;34.63;25.83;;;;;;;-140.66;100.00;55571.53;4937473;29;20468;-73
2021/11/01 00:41:30;;;;;;;37.22;26.52;;;;;;;-140.66;100.00;55571.53;4937098;29;20059;-73
2021/11/01 00:44:16;;;;;;;37.60;26.13;;;;;;;-140.66;100.00;55571.53;4922555;29;20031;-73
2021/11/01 00:47:03;;;;;;;35.80;24.70;;;;;;;-140.66;100.00;55571.53;4922789;29;20059;-73
2021/11/01 00:49:50;;;;;;;38.95;26.70;;;;;;;-140.66;100.00;55571.53;4936069;29;20414;-72
2021/11/01 00:52:36;;;;;;;37.08;27.17;;;;;;;-140.66;100.00;55571.53;4937789;29;20031;-73
2021/11/01 00:55:33;;;;;;;36.13;26.20;;;;;;;-140.66;100.00;55571.53;4922671;29;20028;-75
2021/11/01 00:58:21;;;;;;;39.72;26.58;;;;;;;-140.66;100.00;55571.53;4937142;29;20054;-73
2021/11/01 01:01:07;;;;;;;39.15;26.65;;;;;;;-140.66;100.00;55571.53;4923356;29;20103;-73
2021/11/01 01:03:53;;;;;;;37.38;25.35;;;;;;;-140.66;100.00;55571.53;4936866;29;20028;-74
2021/11/01 01:06:38;;;;;;;37.33;25.30;;;;;;;-140.66;100.00;55571.53;4937198;29;20032;-73
2021/11/01 01:09:24;;;;;;;37.03;26.35;;;;;;;-140.66;100.00;55571.53;4936708;29;20414;-74
2021/11/01 01:12:11;;;;;;;42.08;26.95;;;;;;;-140.66;100.00;55571.53;4937642;29;20399;-73
2021/11/01 01:14:59;;;;;;;38.35;25.73;;;;;;;-140.66;100.00;55571.53;4936675;29;20028;-74
2021/11/01 02:10:03;;;;;;;42.20;24.77;;;;;;;-140.66;100.00;55571.53;5473493;23;20423;-74
2021/11/01 02:12:58;;;;;;;32.15;22.83;;;;;;;-140.66;100.00;55571.53;4958681;29;20031;-74
2021/11/01 02:15:49;;;;;;;34.95;22.88;;;;;;;-140.66;100.00;55571.53;4958699;29;20039;-73
2021/11/01 02:18:35;;;;;;;33.10;23.23;;;;;;;-140.66;100.00;55571.53;4944997;29;20038;-74
2021/11/01 02:21:44;;;;;;;35.03;25.33;;;;;;;-140.66;100.00;55571.53;4945645;29;20031;-73
2021/11/01 02:24:43;;;;;;;34.33;24.23;;;;;;;-140.66;100.00;55571.53;4944782;29;20027;-73
2021/11/01 02:27:32;;;;;;;35.75;24.00;;;;;;;-140.66;100.00;55571.53;4958772;29;20106;-73
2021/11/01 02:30:19;;;;;;;47.13;25.27;;;;;;;-140.66;100.00;55571.53;4958360;29;20361;-74
2021/11/01 02:33:07;;;;;;;37.45;25.23;;;;;;;-140.66;100.00;55571.53;4945309;29;20028;-72
2021/11/01 02:35:54;;;;;;;35.97;24.65;;;;;;;-140.66;100.00;55571.53;4957791;29;20035;-73
2021/11/01 02:38:41;;;;;;;36.80;24.83;;;;;;;-140.66;100.00;55571.53;4944135;29;20453;-73
2021/11/01 02:41:31;;;;;;;36.80;24.98;;;;;;;-140.66;100.00;55571.53;4958391;29;20027;-73
2021/11/01 02:44:17;;;;;;;40.35;24.75;;;;;;;-140.66;100.00;55571.53;4958573;29;20089;-74
2021/11/01 02:47:03;;;;;;;35.42;24.38;;;;;;;-140.66;100.00;55571.53;4957903;29;20386;-74
2021/11/01 02:49:49;;;;;;;36.65;25.27;;;;;;;-140.66;100.00;55571.53;4958649;29;20063;-73
2021/11/01 02:52:35;;;;;;;35.05;24.35;;;;;;;-140.66;100.00;55571.53;4958984;29;20389;-73
2021/11/01 02:55:22;;;;;;;34.97;24.42;;;;;;;-140.66;100.00;55571.53;4957490;29;20042;-72
2021/11/01 02:58:07;;;;;;;35.53;23.13;;;;;;;-140.66;100.00;55571.53;4944136;29;20069;-73
2021/11/01 03:00:53;;;;;;;32.33;23.45;;;;;;;-140.66;100.00;55571.53;4957604;29;20469;-73
2021/11/01 03:03:41;;;;;;;40.03;24.48;;;;;;;-140.66;100.00;55571.53;4944453;29;20102;-73
2021/11/01 03:06:29;;;;;;;34.10;23.00;;;;;;;-140.66;100.00;55571.53;4943784;29;20031;-74
2021/11/01 03:09:16;;;;;;;37.35;23.67;;;;;;;-140.66;100.00;55571.53;4943273;28;20501;-74
2021/11/01 03:12:06;;;;;;;34.22;23.88;;;;;;;-140.66;100.00;55571.53;4957682;28;20451;-73
2021/11/01 03:14:55;;;;;;;36.38;24.40;;;;;;;-140.66;100.00;55571.53;4944171;29;20055;-73
2021/11/01 03:17:46;;;;;;;38.97;26.25;;;;;;;-140.66;100.00;55571.53;4956919;29;20027;-73
2021/11/01 03:20:42;;;;;;;36.83;24.65;;;;;;;-140.66;100.00;55571.53;4943877;29;20466;-75
2021/11/01 03:23:33;;;;;;;39.25;26.25;;;;;;;-140.66;100.00;55571.53;4944308;29;20222;-74
2021/11/01 03:26:21;;;;;;;41.58;27.27;;;;;;;-140.66;100.00;55571.53;4943740;29;20389;-74
2021/11/01 03:29:10;;;;;;;38.67;26.02;;;;;;;-140.66;100.00;55571.53;4957478;29;20031;-72
2021/11/01 03:31:58;;;;;;;43.10;27.10;;;;;;;-140.66;100.00;55571.53;4943340;29;20134;-73
2021/11/01 03:34:45;;;;;;;41.08;25.50;;;;;;;-140.66;100.00;55571.53;4956647;29;20035;-74
2021/11/01 03:37:32;;;;;;;40.10;27.23;;;;;;;-140.66;100.00;55571.53;4957963;29;20027;-72
2021/11/01 03:40:20;;;;;;;37.28;26.40;;;;;;;-140.66;100.00;55571.53;4957089;29;20051;-72
2021/11/01 03:43:07;;;;;;;39.53;26.35;;;;;;;-140.66;100.00;55571.53;4957056;29;20035;-73
2021/11/01 03:45:55;;;;;;;37.95;26.42;;;;;;;-140.66;100.00;55571.53;4956443;29;20053;-73
2021/11/01 03:48:43;;;;;;;40.38;26.33;;;;;;;-140.66;100.00;55571.53;4956949;29;20442;-74
2021/11/01 03:51:43;;;;;;;43.20;27.77;;;;;;;-140.66;100.00;55571.53;4957254;29;20027;-74
2021/11/01 03:54:29;;;;;;;42.67;29.02;;;;;;;-140.66;100.00;55571.53;4956477;29;20039;-73
2021/11/01 03:57:15;;;;;;;50.45;32.92;;;;;;;-140.66;100.00;55571.53;4956651;29;20351;-75
2021/11/01 04:00:05;;;;;;;46.95;32.55;;;;;;;-140.66;100.00;55571.53;4956378;29;20023;-73
2021/11/01 04:02:51;;;;;;;52.50;35.50;;;;;;;-140.66;100.00;55571.53;4956713;29;20034;-73
2021/11/01 04:05:37;;;;;;;51.88;35.92;;;;;;;-140.66;100.00;55571.53;4942674;29;20369;-73
2021/11/01 04:08:23;;;;;;;54.67;35.20;;;;;;;-140.66;100.00;55571.53;4941916;29;20035;-72
2021/11/01 04:11:10;;;;;;;53.97;35.70;;;;;;;-140.66;100.00;55571.53;4955594;29;20051;-73
2021/11/01 04:14:01;;;;;;;53.35;34.63;;;;;;;-140.66;100.00;55571.53;4956025;29;20480;-72
2021/11/01 04:16:49;;;;;;;52.20;35.42;;;;;;;-140.66;100.00;55571.53;4955785;29;20027;-74
2021/11/01 04:19:43;;;;;;;57.95;36.53;;;;;;;-140.66;100.00;55571.53;4957553;29;20114;-74
2021/11/01 04:22:30;;;;;;;58.55;38.35;;;;;;;-140.66;100.00;55571.53;4942072;29;20450;-73
2021/11/01 04:25:17;;;;;;;54.55;37.92;;;;;;;-140.66;100.00;55571.53;4955530;29;20125;-73
2021/11/01 04:28:04;;;;;;;49.72;32.63;;;;;;;-140.66;100.00;55571.53;4955747;29;20472;-73
2021/11/01 04:30:55;;;;;;;44.10;29.67;;;;;;;-140.66;100.00;55571.53;4942311;29;20035;-73
2021/11/01 04:33:42;;;;;;;52.70;31.88;;;;;;;-140.66;100.00;55571.53;4956008;29;20111;-75
2021/11/01 04:36:29;;;;;;;42.88;28.95;;;;;;;-140.66;100.00;55571.53;4956238;29;20366;-73
2021/11/01 04:40:12;;;;;;;49.08;30.75;;;;;;;-140.66;100.00;55571.53;4955217;29;20031;-75
2021/11/01 04:54:25;;;;;;;49.20;31.30;;;;;;;-140.66;100.00;55571.53;4955647;29;20027;-72
2021/11/01 04:57:12;;;;;;;43.45;28.67;;;;;;;-140.66;100.00;55571.53;4955325;29;20035;-73
2021/11/01 04:59:58;;;;;;;43.38;29.65;;;;;;;-140.66;100.00;55571.53;4955462;29;20122;-74
2021/11/01 05:02:48;;;;;;;54.97;34.83;;;;;;;-140.66;100.00;55571.53;4955363;29;20023;-73
2021/11/01 05:05:34;;;;;;;58.88;36.80;;;;;;;-140.66;100.00;55571.53;4955112;29;20031;-74
2021/11/01 05:08:23;;;;;;;59.22;36.17;;;;;;;-140.66;100.00;55571.53;4956140;29;20058;-73
2021/11/01 05:11:15;;;;;;;59.13;38.35;;;;;;;-140.66;100.00;55571.53;4954841;29;20051;-74
2021/11/01 05:14:02;;;;;;;72.40;43.95;;;;;;;-140.66;100.00;55571.53;4955861;29;20019;-73
2021/11/01 05:17:27;;;;;;;78.15;45.72;;;;;;;-140.66;100.00;55571.53;4954652;29;20039;-73
2021/11/01 05:28:41;;;;;;;70.38;41.20;;;;;;;-140.66;100.00;55571.53;4955636;29;20481;-73
2021/11/01 05:31:28;;;;;;;59.05;35.03;;;;;;;-140.66;100.00;55571.53;4954692;29;20023;-73
2021/11/01 05:34:18;;;;;;;58.85;33.55;;;;;;;-140.66;100.00;55571.53;4955283;29;20462;-73
2021/11/01 05:37:04;;;;;;;51.53;32.08;;;;;;;-140.66;100.00;55571.53;4958259;29;20066;-74
2021/11/01 05:39:50;;;;;;;53.28;31.55;;;;;;;-140.66;100.00;55571.53;4945648;29;20110;-73
2021/11/01 05:42:36;;;;;;;55.20;35.20;;;;;;;-140.66;100.00;55571.53;4958832;29;20141;-73
2021/11/01 05:45:22;;;;;;;59.08;37.03;;;;;;;-140.66;100.00;55571.53;4958397;29;20033;-73
2021/11/01 05:48:08;;;;;;;51.97;34.25;;;;;;;-140.66;100.00;55571.53;4958501;29;20461;-73
2021/11/01 05:50:55;;;;;;;54.50;35.25;;;;;;;-140.66;100.00;55571.53;4959247;29;20102;-74
2021/11/01 05:53:43;;;;;;;60.17;33.40;;;;;;;-140.66;100.00;55571.53;4959565;29;20252;-74
2021/11/01 05:56:49;;;;;;;52.00;33.42;;;;;;;-140.66;100.00;55571.53;4958558;29;20126;-74
2021/11/01 06:05:39;;;;;;;52.53;35.03;;;;;;;-140.66;100.00;55571.53;4958828;29;20023;-74
2021/11/01 06:14:11;;;;;;;52.05;31.73;;;;;;;-140.66;100.00;55571.53;4958505;29;20334;-73
2021/11/01 06:16:58;;;;;;;55.03;32.63;;;;;;;-140.66;100.00;55571.53;4959156;29;20501;-74
2021/11/01 06:19:44;;;;;;;49.17;33.55;;;;;;;-140.66;100.00;55571.53;4958312;29;20038;-74
2021/11/01 06:22:30;;;;;;;51.67;33.33;;;;;;;-140.66;100.00;55571.53;4944332;29;20034;-73
2021/11/01 06:25:18;;;;;;;49.63;31.85;;;;;;;-140.66;100.00;55571.53;4944728;29;20042;-73
2021/11/01 06:28:04;;;;;;;53.33;33.88;;;;;;;-140.66;100.00;55571.53;4957998;29;20450;-74
2021/11/01 06:30:57;;;;;;;53.95;32.53;;;;;;;-140.66;100.00;55571.53;4958223;29;20031;-74
2021/11/01 06:57:52;;;;;;;64.07;40.58;;;;;;;-140.66;100.00;55571.53;4957766;29;20027;-74
2021/11/01 07:15:46;;;;;;;52.03;31.20;;;;;;;-140.66;100.00;55571.53;4957569;29;20446;-73
2021/11/01 07:21:55;;;;;;;50.15;31.45;;;;;;;-140.66;100.00;55571.53;4942292;29;20062;-74
2021/11/01 08:28:37;;;;;;;44.47;26.80;;;;;;;-140.66;100.00;55571.53;4956239;29;20031;-74
2021/11/01 09:07:42;;;;;;;39.97;25.70;;;;;;;-140.66;100.00;55571.53;4955146;29;20102;-74
2021/11/01 09:22:28;;;;;;;38.30;25.90;;;;;;;-140.66;100.00;55571.53;4959670;29;20023;-74
2021/11/01 09:25:26;;;;;;;39.00;24.67;;;;;;;-140.66;100.00;55571.53;4958980;29;20028;-73
2021/11/01 09:28:17;;;;;;;41.30;26.20;;;;;;;-140.66;100.00;55571.53;4958676;29;20027;-73
2021/11/01 09:43:06;;;;;;;44.95;27.55;;;;;;;-140.66;100.00;55571.53;4959101;29;20031;-73
2021/11/01 09:46:00;;;;;;;38.35;25.90;;;;;;;-140.66;100.00;55571.53;4958800;29;20032;-72
2021/11/01 09:48:46;;;;;;;38.15;25.02;;;;;;;-140.66;100.00;55571.53;4958832;29;20456;-74
2021/11/01 09:51:32;;;;;;;44.42;28.23;;;;;;;-140.66;100.00;55571.53;4958490;29;20114;-74
2021/11/01 09:54:27;;;;;;;39.58;26.00;;;;;;;-140.66;100.00;55571.53;4958267;29;20326;-73
2021/11/01 09:57:32;;;;;;;49.60;26.85;;;;;;;-140.66;100.00;55571.53;4959871;29;20027;-73
2021/11/01 10:00:18;;;;;;;44.78;26.00;;;;;;;-140.66;100.00;55571.53;4958256;29;20032;-73
2021/11/01 10:03:04;;;;;;;37.30;24.67;;;;;;;-140.66;100.00;55571.53;4958169;29;20041;-73
2021/11/01 10:05:58;;;;;;;39.33;24.40;;;;;;;-140.66;100.00;55571.53;4958241;29;20038;-73
2021/11/01 10:08:51;;;;;;;40.33;25.73;;;;;;;-140.66;100.00;55571.53;4944545;29;20335;-73
2021/11/01 10:11:39;;;;;;;38.15;25.52;;;;;;;-140.66;100.00;55571.53;4959174;29;20385;-73
2021/11/01 10:14:26;;;;;;;36.50;24.77;;;;;;;-140.66;100.00;55571.53;4958797;29;20035;-72
2021/11/01 10:20:20;;;;;;;49.55;30.63;;;;;;;-140.66;100.00;55571.53;4957998;29;20034;-74
2021/11/01 10:23:20;;;;;;;37.80;25.63;;;;;;;-140.66;100.00;55571.53;4958527;29;20123;-74
2021/11/01 10:26:07;;;;;;;40.35;25.95;;;;;;;-140.66;100.00;55571.53;4959047;29;20094;-73
2021/11/01 10:28:53;;;;;;;40.90;26.30;;;;;;;-140.66;100.00;55571.53;4957864;29;20027;-72
2021/11/01 10:31:46;;;;;;;38.28;24.58;;;;;;;-140.66;100.00;55571.53;4957848;29;20458;-73
2021/11/01 10:34:33;;;;;;;40.35;27.38;;;;;;;-140.66;100.00;55571.53;4959291;29;20093;-74
2021/11/01 10:37:18;;;;;;;43.70;27.35;;;;;;;-140.66;100.00;55571.53;4958297;29;20343;-74
2021/11/01 10:40:08;;;;;;;44.28;27.48;;;;;;;-140.66;100.00;55571.53;4957895;29;20086;-73
2021/11/01 10:43:01;;;;;;;42.95;27.42;;;;;;;-140.66;100.00;55571.53;4957457;29;20350;-74
2021/11/01 11:13:22;;;;;;;41.10;26.40;;;;;;;-140.66;100.00;55571.53;4957127;29;20038;-73
2021/11/01 11:16:11;;;;;;;42.70;25.70;;;;;;;-140.66;100.00;55571.53;4957000;29;20105;-74
2021/11/01 11:19:11;;;;;;;39.25;25.05;;;;;;;-140.66;100.00;55571.53;4957540;29;20031;-74
2021/11/01 11:28:02;;;;;;;39.08;25.60;;;;;;;-140.66;100.00;55571.53;4957869;29;20454;-74
2021/11/01 11:31:44;;;;;;;41.30;25.23;;;;;;;-140.66;100.00;55571.53;4942657;29;20038;-73
2021/11/01 11:43:14;;;;;;;33.90;23.33;;;;;;;-140.66;100.00;55571.53;4956447;29;20035;-73
2021/11/01 11:49:17;;;;;;;32.78;23.38;;;;;;;-140.66;100.00;55571.53;4956282;29;20082;-74
2021/11/01 11:52:11;;;;;;;32.00;23.08;;;;;;;-140.66;100.00;55571.53;4956225;29;20128;-74
2021/11/01 11:55:04;;;;;;;33.03;22.00;;;;;;;-140.66;100.00;55571.53;4942474;29;20039;-73
2021/11/01 11:57:58;;;;;;;38.00;23.70;;;;;;;-140.66;100.00;55571.53;4956600;29;20110;-74
2021/11/01 12:00:44;;;;;;;33.83;21.77;;;;;;;-140.66;100.00;55571.53;4956999;29;20178;-74
2021/11/01 12:03:39;;;;;;;34.05;22.33;;;;;;;-140.66;100.00;55571.53;4956929;29;20452;-75
2021/11/01 12:06:56;;;;;;;36.13;22.52;;;;;;;-140.66;100.00;55571.53;4957086;29;20031;-73
2021/11/01 12:09:59;;;;;;;36.63;22.67;;;;;;;-140.66;100.00;55571.53;4956762;29;20059;-73
2021/11/01 12:18:29;;;;;;;33.08;22.15;;;;;;;-140.66;100.00;55571.53;4956658;29;20102;-72
2021/11/01 12:21:15;;;;;;;31.70;21.10;;;;;;;-140.66;100.00;55571.53;4955835;29;20038;-73
2021/11/01 12:24:01;;;;;;;30.38;21.83;;;;;;;-140.66;100.00;55571.53;4942284;29;20035;-74
2021/11/01 12:26:48;;;;;;;29.42;22.50;;;;;;;-140.66;100.00;55571.53;4942551;29;20378;-73
2021/11/01 12:29:35;;;;;;;31.70;21.70;;;;;;;-140.66;100.00;55571.53;4956580;29;20031;-73
2021/11/01 12:32:22;;;;;;;34.60;22.90;;;;;;;-140.66;100.00;55571.53;4957114;29;20102;-73
2021/11/01 12:35:31;;;;;;;32.38;21.15;;;;;;;-140.66;100.00;55571.53;4955651;29;20050;-73
2021/11/01 12:38:22;;;;;;;31.02;22.35;;;;;;;-140.66;100.00;55571.53;4956756;29;20173;-73
2021/11/01 12:41:27;;;;;;;31.30;22.30;;;;;;;-140.66;100.00;55571.53;4956185;29;20019;-73
2021/11/01 12:57:24;;;;;;;32.95;21.45;;;;;;;-140.66;100.00;55571.53;4955583;29;20042;-75
2021/11/01 13:00:05;;;;;;;30.65;22.67;;;;;;;-140.66;100.00;55571.53;4956531;29;20019;-75
2021/11/01 13:02:51;;;;;;;35.97;25.80;;;;;;;-140.66;100.00;55571.53;4956374;29;20023;-74
2021/11/01 13:05:50;;;;;;;34.33;23.67;;;;;;;-140.66;100.00;55571.53;4956384;29;20090;-74
2021/11/01 13:08:49;;;;;;;32.95;22.65;;;;;;;-140.66;100.00;55571.53;4942166;29;20042;-73
2021/11/01 13:12:21;;;;;;;33.50;23.40;;;;;;;-140.66;100.00;55571.53;4956084;29;20194;-75
2021/11/01 13:18:05;;;;;;;30.50;21.60;;;;;;;-140.66;100.00;55571.53;4955183;29;20413;-73
2021/11/01 13:21:02;;;;;;;30.52;21.10;;;;;;;-140.66;100.00;55571.53;4956168;29;20042;-73
2021/11/01 13:24:03;;;;;;;27.63;20.15;;;;;;;-140.66;100.00;55571.53;4956166;29;20035;-72
2021/11/01 13:27:04;;;;;;;38.67;22.33;;;;;;;-140.66;100.00;55571.53;4955068;29;20078;-73
2021/11/01 13:38:42;;;;;;;31.17;21.48;;;;;;;-140.66;100.00;55571.53;4955500;29;20094;-75
2021/11/01 13:41:28;;;;;;;29.75;20.95;;;;;;;-140.66;100.00;55571.53;4941886;29;20036;-74
2021/11/01 13:44:34;;;;;;;28.35;20.10;;;;;;;-140.66;100.00;55571.53;4955215;29;20043;-74
2021/11/01 13:47:20;;;;;;;30.23;20.98;;;;;;;-140.66;100.00;55571.53;4955874;29;20038;-73
2021/11/01 13:50:06;;;;;;;35.22;21.05;;;;;;;-140.66;100.00;55571.53;4954986;29;20119;-73
2021/11/01 13:53:11;;;;;;;27.77;20.30;;;;;;;-140.66;100.00;55571.53;4955814;29;20046;-73
2021/11/01 13:56:31;;;;;;;27.13;19.90;;;;;;;-140.66;100.00;55571.53;4942639;28;20031;-73
2021/11/01 14:17:20;;;;;;;29.75;21.27;;;;;;;-140.66;100.00;55571.53;4959109;29;20156;-74
2021/11/01 14:29:14;;;;;;;37.55;27.73;;;;;;;-140.66;100.00;55571.53;4958225;29;20023;-73
2021/11/01 15:37:49;;;;;;;36.20;24.90;;;;;;;-140.66;100.00;55571.53;4956634;29;20098;-74
2021/11/01 16:19:57;;;;;;;47.58;33.55;;;;;;;-140.66;100.00;55571.53;4956157;28;20030;-73
2021/11/01 16:22:44;;;;;;;51.65;34.70;;;;;;;-140.66;100.00;55571.53;4956767;29;20063;-74
2021/11/01 16:25:30;;;;;;;77.97;52.08;;;;;;;-140.66;100.00;55571.53;4956145;29;20031;-74
2021/11/01 16:28:16;;;;;;;56.28;38.05;;;;;;;-140.66;100.00;55571.53;4942046;29;20039;-73
2021/11/01 16:31:22;;;;;;;71.60;47.13;;;;;;;-140.66;100.00;55571.53;4956627;29;20387;-73
2021/11/01 16:34:14;;;;;;;68.30;48.47;;;;;;;-140.66;100.00;55571.53;4956171;29;20403;-73
2021/11/01 16:37:13;;;;;;;61.17;40.10;;;;;;;-140.66;100.00;55571.53;4956814;28;20118;-73
2021/11/01 16:40:05;;;;;;;65.13;45.58;;;;;;;-140.66;100.00;55571.53;4942018;29;20090;-73
2021/11/01 16:42:52;;;;;;;73.57;47.85;;;;;;;-140.66;100.00;55571.53;4956491;29;20106;-74
2021/11/01 16:45:38;;;;;;;81.18;48.80;;;;;;;-140.66;100.00;55571.53;4955761;29;20038;-73
2021/11/01 16:48:24;;;;;;;72.00;44.13;;;;;;;-140.66;100.00;55571.53;4955417;29;20035;-74
2021/11/01 16:51:10;;;;;;;92.03;63.15;;;;;;;-140.66;100.00;55571.53;4955643;29;20140;-73
2021/11/01 16:53:56;;;;;;;59.53;41.70;;;;;;;-140.66;100.00;55571.53;4955362;29;20039;-74
2021/11/01 16:59:51;;;;;;;59.33;40.67;;;;;;;-140.66;100.00;55571.53;4956707;29;20038;-73
2021/11/01 17:06:25;;;;;;;62.03;40.25;;;;;;;-140.66;100.00;55571.53;4957022;28;20140;-73
2021/11/01 17:27:04;;;;;;;94.55;57.67;;;;;;;-140.66;100.00;55571.53;4955586;29;20078;-73
2021/11/01 18:41:18;;;;;;;70.97;44.38;;;;;;;-140.66;100.00;55571.53;4959307;29;20054;-74
2021/11/01 18:44:31;;;;;;;66.43;40.53;;;;;;;-140.66;100.00;55571.53;4957378;29;20369;-73
2021/11/01 18:53:10;;;;;;;76.63;48.22;;;;;;;-140.66;100.00;55571.53;4957869;29;20049;-73
2021/11/01 18:55:56;;;;;;;81.20;49.38;;;;;;;-140.66;100.00;55571.53;4943996;29;20058;-72
2021/11/01 18:58:43;;;;;;;70.53;48.20;;;;;;;-140.66;100.00;55571.53;4957893;29;20517;-73
2021/11/01 19:01:32;;;;;;;67.25;42.35;;;;;;;-140.66;100.00;55571.53;4958678;29;20426;-72
2021/11/01 19:04:25;;;;;;;54.00;35.53;;;;;;;-140.66;100.00;55571.53;4958595;29;20027;-72
2021/11/01 19:07:24;;;;;;;60.78;40.20;;;;;;;-140.66;100.00;55571.53;4957729;29;20097;-73
2021/11/01 20:03:10;;;;;;;61.25;40.00;;;;;;;-140.66;100.00;55571.53;4956268;29;20093;-74
2021/11/01 20:06:11;;;;;;;67.25;43.05;;;;;;;-140.66;100.00;55571.53;4956632;29;20342;-72
2021/11/01 21:26:29;;;;;;;79.38;50.80;;;;;;;-140.66;100.00;55571.53;4955019;29;20027;-72
2021/11/01 21:29:14;;;;;;;78.20;49.45;;;;;;;-140.66;100.00;55571.53;4941660;29;20365;-75
2021/11/01 21:32:02;;;;;;;82.95;51.88;;;;;;;-140.66;100.00;55571.53;4955019;29;20031;-72
2021/11/01 21:35:00;;;;;;;81.43;52.35;;;;;;;-140.66;100.00;55571.53;4956658;29;20027;-74
2021/11/01 21:37:46;;;;;;;108.53;68.75;;;;;;;-140.66;100.00;55571.53;4941899;29;20038;-74
2021/11/01 21:40:32;;;;;;;109.45;76.38;;;;;;;-140.66;100.00;55571.53;4955217;29;20062;-73
2021/11/01 21:43:18;;;;;;;79.85;50.65;;;;;;;-140.66;100.00;55571.53;4955418;29;20035;-72
2021/11/01 21:46:04;;;;;;;87.72;53.58;;;;;;;-140.66;100.00;55571.53;4954780;29;20035;-73
2021/11/01 21:48:51;;;;;;;76.05;48.30;;;;;;;-140.66;100.00;55571.53;4955244;29;20097;-73
2021/11/01 21:51:41;;;;;;;66.93;43.38;;;;;;;-140.66;100.00;55571.53;4941395;29;20019;-74
2021/11/01 21:54:28;;;;;;;65.18;41.42;;;;;;;-140.66;100.00;55571.53;4956332;29;20032;-73
2021/11/01 21:57:20;;;;;;;80.13;51.25;;;;;;;-140.66;100.00;55571.53;4955042;29;20118;-73
2021/11/01 22:18:27;;;;;;;62.40;39.60;;;;;;;-140.66;100.00;55571.53;4957517;28;20027;-73
2021/11/01 22:21:18;;;;;;;66.15;41.30;;;;;;;-140.66;100.00;55571.53;4958240;29;20027;-72
2021/11/01 22:33:08;;;;;;;68.45;40.95;;;;;;;-140.66;100.00;55571.53;4957820;29;20047;-73
2021/11/01 22:39:05;;;;;;;72.40;44.78;;;;;;;-140.66;100.00;55571.53;4947468;29;20038;-73
2021/11/01 22:56:52;;;;;;;66.47;41.92;;;;;;;-140.66;100.00;55571.53;4957721;29;20098;-73
2021/11/01 22:59:39;;;;;;;64.60;38.92;;;;;;;-140.66;100.00;55571.53;4958077;29;20170;-73
2021/11/01 23:02:24;;;;;;;60.63;38.78;;;;;;;-140.66;100.00;55571.53;4957639;29;20347;-73
2021/11/01 23:05:31;;;;;;;69.05;41.35;;;;;;;-140.66;100.00;55571.53;4944516;29;20046;-73
2021/11/01 23:32:54;;;;;;;61.50;37.95;;;;;;;-140.66;100.00;55571.53;4957321;29;20039;-72
2021/11/01 23:35:39;;;;;;;58.88;37.08;;;;;;;-140.66;100.00;55571.53;4943115;29;20081;-73
2021/11/01 23:38:25;;;;;;;55.63;35.63;;;;;;;-140.66;100.00;55571.53;4956725;29;20074;-72
2021/11/01 23:41:12;;;;;;;59.45;37.30;;;;;;;-140.66;100.00;55571.53;4957273;29;20041;-73
2021/11/01 23:43:57;;;;;;;59.10;36.33;;;;;;;-140.66;100.00;55571.53;4957049;29;20027;-73
2021/11/01 23:46:43;;;;;;;58.67;34.03;;;;;;;-140.66;100.00;55571.53;4956441;29;20048;-73
2021/11/01 23:49:29;;;;;;;51.97;35.03;;;;;;;-140.66;100.00;55571.53;4957849;29;20038;-72
2021/11/01 23:52:16;;;;;;;60.75;37.30;;;;;;;-140.66;100.00;55571.53;4956713;29;20023;-72
2021/11/01 23:55:02;;;;;;;53.40;34.65;;;;;;;-140.66;100.00;55571.53;4956370;29;20042;-73
2021/11/01 23:57:48;;;;;;;53.47;34.78;;;;;;;-140.66;100.00;55571.53;4956361;29;20042;-73
